首页
METAR-TAF:

METAR-TAF

机场 :

阿雷基帕, 秘鲁

纬度: 16-19S, 经度: 071-33W, 海拔: 2538米

当前天气观测

该预报发布于1小时和14分钟前的21:00 UTC
风速11节,风向西,在南转西南西转西北之间变化
温度 17°C
湿度 48%
气压 1024 hPa
能见度10公里或以上
1500米以下无云,无积雨云

METAR: SPQU 112100Z 26011KT 210V290 CAVOK 17/06 Q1024 NOSIG RMK PP000

时间: 17:14 (22:14 UTC)

预报

该预报发布于5小时和14分钟前的17:00 UTC
预报有效从11日的 18点(UTC)到 12日的 18点(UTC)
风速10节,风向西转西南
能见度10公里或以上
1500米以下无云,无积雨云
成为
从 11日的 23点(UTC)到 12日的 01点(UTC)
风速5节,风向东北
成为
从 12日的 14点(UTC)到 12日的 16点(UTC)
风速10节,风向西转西南

TAF: SPQU 111700Z 1118/1218 25010KT CAVOK TX21/1119Z TN09/1211Z BECMG 1123/1201 04005KT BECMG 1214/1216 24010KT

超过4000个机场的气象观测和天气预报(METAR&TAF报告)。

可查询的气象台以黄色和红色小点在地图上表示。

将鼠标移到小点上方,可查看气象台名称。

然后点击查看天气观测和预报。

如需切换地图:点击带黑十字的绿色按钮放大地图;点击带横线的绿色按钮缩小地图;或者点击绿色箭头查看邻近地区的地图。


METAR-TAF: